sensor_id;sensor_type;location;lat;lon;timestamp;temperature;humidity
47482;DHT22;33219;47.410;9.730;2023-05-29T00:00:30;14.60;98.90
47482;DHT22;33219;47.410;9.730;2023-05-29T00:02:59;14.60;99.10
47482;DHT22;33219;47.410;9.730;2023-05-29T00:05:28;14.60;99.20
47482;DHT22;33219;47.410;9.730;2023-05-29T00:07:55;14.60;99.30
47482;DHT22;33219;47.410;9.730;2023-05-29T00:10:23;14.60;99.50
47482;DHT22;33219;47.410;9.730;2023-05-29T00:12:50;14.50;99.70
47482;DHT22;33219;47.410;9.730;2023-05-29T00:15:18;14.50;99.80
47482;DHT22;33219;47.410;9.730;2023-05-29T00:17:45;14.50;99.90
47482;DHT22;33219;47.410;9.730;2023-05-29T00:20:13;14.50;99.90
47482;DHT22;33219;47.410;9.730;2023-05-29T00:22:41;14.40;99.90
47482;DHT22;33219;47.410;9.730;2023-05-29T00:25:08;14.40;99.90
47482;DHT22;33219;47.410;9.730;2023-05-29T00:27:36;14.40;99.90
47482;DHT22;33219;47.410;9.730;2023-05-29T00:30:04;14.30;99.90
47482;DHT22;33219;47.410;9.730;2023-05-29T00:32:32;14.30;99.90
47482;DHT22;33219;47.410;9.730;2023-05-29T00:34:59;14.30;99.90
47482;DHT22;33219;47.410;9.730;2023-05-29T00:37:27;14.30;99.90
47482;DHT22;33219;47.410;9.730;2023-05-29T00:39:54;14.20;99.90
47482;DHT22;33219;47.410;9.730;2023-05-29T00:42:22;14.20;99.90
47482;DHT22;33219;47.410;9.730;2023-05-29T00:44:49;14.20;99.90
47482;DHT22;33219;47.410;9.730;2023-05-29T00:47:17;14.10;99.90
47482;DHT22;33219;47.410;9.730;2023-05-29T00:49:45;14.00;99.90
47482;DHT22;33219;47.410;9.730;2023-05-29T00:52:13;14.00;99.90
47482;DHT22;33219;47.410;9.730;2023-05-29T00:54:43;14.00;99.90
47482;DHT22;33219;47.410;9.730;2023-05-29T00:57:12;14.00;99.90
47482;DHT22;33219;47.410;9.730;2023-05-29T00:59:41;13.90;99.90
47482;DHT22;33219;47.410;9.730;2023-05-29T01:02:10;13.80;99.90
47482;DHT22;33219;47.410;9.730;2023-05-29T01:04:38;13.80;99.90
47482;DHT22;33219;47.410;9.730;2023-05-29T01:07:05;13.70;99.90
47482;DHT22;33219;47.410;9.730;2023-05-29T01:09:33;13.70;99.90
47482;DHT22;33219;47.410;9.730;2023-05-29T01:12:22;13.70;99.90
47482;DHT22;33219;47.410;9.730;2023-05-29T01:18:00;13.60;99.90
47482;DHT22;33219;47.410;9.730;2023-05-29T01:23:51;13.50;99.90
47482;DHT22;33219;47.410;9.730;2023-05-29T01:28:53;13.40;99.90
47482;DHT22;33219;47.410;9.730;2023-05-29T01:31:25;13.40;99.90
47482;DHT22;33219;47.410;9.730;2023-05-29T01:33:54;13.40;99.90
47482;DHT22;33219;47.410;9.730;2023-05-29T01:36:22;13.40;99.90
47482;DHT22;33219;47.410;9.730;2023-05-29T01:38:53;13.40;99.90
47482;DHT22;33219;47.410;9.730;2023-05-29T01:41:22;13.50;99.90
47482;DHT22;33219;47.410;9.730;2023-05-29T01:43:50;13.40;99.90
47482;DHT22;33219;47.410;9.730;2023-05-29T01:46:19;13.50;99.90
47482;DHT22;33219;47.410;9.730;2023-05-29T01:48:47;13.50;99.90
47482;DHT22;33219;47.410;9.730;2023-05-29T01:51:15;13.50;99.90
47482;DHT22;33219;47.410;9.730;2023-05-29T01:53:43;13.40;99.90
47482;DHT22;33219;47.410;9.730;2023-05-29T01:56:11;13.40;99.90
47482;DHT22;33219;47.410;9.730;2023-05-29T01:58:39;13.40;99.90
47482;DHT22;33219;47.410;9.730;2023-05-29T02:01:07;13.40;99.90
47482;DHT22;33219;47.410;9.730;2023-05-29T02:03:36;13.40;99.90
47482;DHT22;33219;47.410;9.730;2023-05-29T02:06:03;13.40;99.90
47482;DHT22;33219;47.410;9.730;2023-05-29T02:08:31;13.30;99.90
47482;DHT22;33219;47.410;9.730;2023-05-29T02:10:58;13.30;99.90
47482;DHT22;33219;47.410;9.730;2023-05-29T02:13:26;13.30;99.90
47482;DHT22;33219;47.410;9.730;2023-05-29T02:15:53;13.30;99.90
47482;DHT22;33219;47.410;9.730;2023-05-29T02:18:21;13.20;99.90
47482;DHT22;33219;47.410;9.730;2023-05-29T02:20:48;13.20;99.90
47482;DHT22;33219;47.410;9.730;2023-05-29T02:23:16;13.20;99.90
47482;DHT22;33219;47.410;9.730;2023-05-29T02:25:45;13.20;99.90
47482;DHT22;33219;47.410;9.730;2023-05-29T02:28:13;13.10;99.90
47482;DHT22;33219;47.410;9.730;2023-05-29T02:30:41;13.20;99.90
47482;DHT22;33219;47.410;9.730;2023-05-29T02:33:08;13.20;99.90
47482;DHT22;33219;47.410;9.730;2023-05-29T02:35:36;13.10;99.90
47482;DHT22;33219;47.410;9.730;2023-05-29T02:38:03;13.20;99.90
47482;DHT22;33219;47.410;9.730;2023-05-29T02:40:31;13.10;99.90
47482;DHT22;33219;47.410;9.730;2023-05-29T02:42:58;13.10;99.90
47482;DHT22;33219;47.410;9.730;2023-05-29T02:45:26;13.10;99.90
47482;DHT22;33219;47.410;9.730;2023-05-29T02:47:53;13.10;99.90
47482;DHT22;33219;47.410;9.730;2023-05-29T02:50:21;13.00;99.90
47482;DHT22;33219;47.410;9.730;2023-05-29T02:52:48;12.90;99.90
47482;DHT22;33219;47.410;9.730;2023-05-29T02:55:16;12.90;99.90
47482;DHT22;33219;47.410;9.730;2023-05-29T02:57:44;12.80;99.90
47482;DHT22;33219;47.410;9.730;2023-05-29T03:00:12;12.80;99.90
47482;DHT22;33219;47.410;9.730;2023-05-29T03:02:40;12.80;99.90
47482;DHT22;33219;47.410;9.730;2023-05-29T03:05:07;12.80;99.90
47482;DHT22;33219;47.410;9.730;2023-05-29T03:07:35;12.80;99.90
47482;DHT22;33219;47.410;9.730;2023-05-29T03:10:03;12.80;99.90
47482;DHT22;33219;47.410;9.730;2023-05-29T03:12:31;12.70;99.90
47482;DHT22;33219;47.410;9.730;2023-05-29T03:14:58;12.80;99.90
47482;DHT22;33219;47.410;9.730;2023-05-29T03:17:26;12.80;99.90
47482;DHT22;33219;47.410;9.730;2023-05-29T03:19:54;12.80;99.90
47482;DHT22;33219;47.410;9.730;2023-05-29T03:22:22;12.70;99.90
47482;DHT22;33219;47.410;9.730;2023-05-29T03:24:49;12.60;99.90
47482;DHT22;33219;47.410;9.730;2023-05-29T03:27:17;12.60;99.90
47482;DHT22;33219;47.410;9.730;2023-05-29T03:29:44;12.50;99.90
47482;DHT22;33219;47.410;9.730;2023-05-29T03:32:12;12.40;99.90
47482;DHT22;33219;47.410;9.730;2023-05-29T03:34:39;12.40;99.90
47482;DHT22;33219;47.410;9.730;2023-05-29T03:37:07;12.40;99.90
47482;DHT22;33219;47.410;9.730;2023-05-29T03:39:34;12.40;99.90
47482;DHT22;33219;47.410;9.730;2023-05-29T03:42:02;12.40;99.90
47482;DHT22;33219;47.410;9.730;2023-05-29T03:44:30;12.40;99.90
47482;DHT22;33219;47.410;9.730;2023-05-29T03:46:58;12.40;99.90
47482;DHT22;33219;47.410;9.730;2023-05-29T03:49:25;12.40;99.90
47482;DHT22;33219;47.410;9.730;2023-05-29T03:51:53;12.40;99.90
47482;DHT22;33219;47.410;9.730;2023-05-29T03:54:20;12.40;99.90
47482;DHT22;33219;47.410;9.730;2023-05-29T03:56:48;12.40;99.90
47482;DHT22;33219;47.410;9.730;2023-05-29T03:59:15;12.40;99.90
47482;DHT22;33219;47.410;9.730;2023-05-29T04:01:43;12.40;99.90
47482;DHT22;33219;47.410;9.730;2023-05-29T04:04:11;12.50;99.90
47482;DHT22;33219;47.410;9.730;2023-05-29T04:06:38;12.50;99.90
47482;DHT22;33219;47.410;9.730;2023-05-29T04:09:07;12.50;99.90
47482;DHT22;33219;47.410;9.730;2023-05-29T04:11:35;12.50;99.90
47482;DHT22;33219;47.410;9.730;2023-05-29T04:14:02;12.60;99.90
47482;DHT22;33219;47.410;9.730;2023-05-29T04:16:30;12.60;99.90
47482;DHT22;33219;47.410;9.730;2023-05-29T04:18:57;12.70;99.90
47482;DHT22;33219;47.410;9.730;2023-05-29T04:21:25;12.70;99.90
47482;DHT22;33219;47.410;9.730;2023-05-29T04:23:53;12.90;99.90
47482;DHT22;33219;47.410;9.730;2023-05-29T04:26:21;13.00;99.90
47482;DHT22;33219;47.410;9.730;2023-05-29T04:28:55;13.10;99.90
47482;DHT22;33219;47.410;9.730;2023-05-29T04:31:26;13.70;99.90
47482;DHT22;33219;47.410;9.730;2023-05-29T04:33:54;14.60;99.90
47482;DHT22;33219;47.410;9.730;2023-05-29T04:36:25;15.50;99.90
47482;DHT22;33219;47.410;9.730;2023-05-29T04:38:55;16.30;99.90
47482;DHT22;33219;47.410;9.730;2023-05-29T04:41:23;17.10;99.90
47482;DHT22;33219;47.410;9.730;2023-05-29T04:43:53;17.60;99.90
47482;DHT22;33219;47.410;9.730;2023-05-29T04:46:26;17.90;99.90
47482;DHT22;33219;47.410;9.730;2023-05-29T04:48:52;17.50;99.70
47482;DHT22;33219;47.410;9.730;2023-05-29T04:51:21;17.00;99.90
47482;DHT22;33219;47.410;9.730;2023-05-29T04:53:50;16.80;99.90
47482;DHT22;33219;47.410;9.730;2023-05-29T04:56:20;16.50;99.90
47482;DHT22;33219;47.410;9.730;2023-05-29T04:58:48;16.40;99.90
47482;DHT22;33219;47.410;9.730;2023-05-29T05:01:17;16.40;99.90
47482;DHT22;33219;47.410;9.730;2023-05-29T05:03:45;16.60;99.90
47482;DHT22;33219;47.410;9.730;2023-05-29T05:06:12;16.90;99.90
47482;DHT22;33219;47.410;9.730;2023-05-29T05:08:41;17.50;99.90
47482;DHT22;33219;47.410;9.730;2023-05-29T05:11:09;18.00;99.40
47482;DHT22;33219;47.410;9.730;2023-05-29T05:13:36;18.60;97.90
47482;DHT22;33219;47.410;9.730;2023-05-29T05:16:04;18.60;97.80
47482;DHT22;33219;47.410;9.730;2023-05-29T05:18:32;19.00;96.90
47482;DHT22;33219;47.410;9.730;2023-05-29T05:20:59;19.30;96.40
47482;DHT22;33219;47.410;9.730;2023-05-29T05:23:29;20.00;95.50
47482;DHT22;33219;47.410;9.730;2023-05-29T05:25:56;20.70;94.20
47482;DHT22;33219;47.410;9.730;2023-05-29T05:28:24;20.50;94.50
47482;DHT22;33219;47.410;9.730;2023-05-29T05:30:52;20.00;95.20
47482;DHT22;33219;47.410;9.730;2023-05-29T05:33:20;19.80;94.50
47482;DHT22;33219;47.410;9.730;2023-05-29T05:35:47;20.10;94.70
47482;DHT22;33219;47.410;9.730;2023-05-29T05:38:15;20.60;94.30
47482;DHT22;33219;47.410;9.730;2023-05-29T05:40:42;21.20;92.90
47482;DHT22;33219;47.410;9.730;2023-05-29T05:43:11;21.00;92.90
47482;DHT22;33219;47.410;9.730;2023-05-29T05:45:38;21.20;92.90
47482;DHT22;33219;47.410;9.730;2023-05-29T05:48:08;21.10;92.90
47482;DHT22;33219;47.410;9.730;2023-05-29T05:50:36;21.20;92.70
47482;DHT22;33219;47.410;9.730;2023-05-29T05:53:04;21.60;92.00
47482;DHT22;33219;47.410;9.730;2023-05-29T05:55:32;22.50;91.20
47482;DHT22;33219;47.410;9.730;2023-05-29T05:57:59;22.90;90.60
47482;DHT22;33219;47.410;9.730;2023-05-29T06:00:27;23.50;90.10
47482;DHT22;33219;47.410;9.730;2023-05-29T06:02:54;24.10;89.80
47482;DHT22;33219;47.410;9.730;2023-05-29T06:05:22;25.20;86.50
47482;DHT22;33219;47.410;9.730;2023-05-29T06:07:50;24.60;86.60
47482;DHT22;33219;47.410;9.730;2023-05-29T06:10:17;23.80;87.00
47482;DHT22;33219;47.410;9.730;2023-05-29T06:12:45;23.40;87.60
47482;DHT22;33219;47.410;9.730;2023-05-29T06:15:13;23.20;88.00
47482;DHT22;33219;47.410;9.730;2023-05-29T06:17:40;23.80;86.90
47482;DHT22;33219;47.410;9.730;2023-05-29T06:20:09;23.80;85.20
47482;DHT22;33219;47.410;9.730;2023-05-29T06:22:40;24.00;84.50
47482;DHT22;33219;47.410;9.730;2023-05-29T06:25:08;23.80;83.90
47482;DHT22;33219;47.410;9.730;2023-05-29T06:27:36;23.90;84.20
47482;DHT22;33219;47.410;9.730;2023-05-29T06:30:04;24.00;82.50
47482;DHT22;33219;47.410;9.730;2023-05-29T06:32:32;24.40;81.60
47482;DHT22;33219;47.410;9.730;2023-05-29T06:34:59;24.70;81.90
47482;DHT22;33219;47.410;9.730;2023-05-29T06:37:27;25.50;79.60
47482;DHT22;33219;47.410;9.730;2023-05-29T06:39:54;26.30;77.20
47482;DHT22;33219;47.410;9.730;2023-05-29T06:42:22;26.70;75.10
47482;DHT22;33219;47.410;9.730;2023-05-29T06:44:50;26.90;74.20
47482;DHT22;33219;47.410;9.730;2023-05-29T06:47:17;25.60;75.30
47482;DHT22;33219;47.410;9.730;2023-05-29T06:49:45;25.00;77.30
47482;DHT22;33219;47.410;9.730;2023-05-29T06:52:12;24.60;76.60
47482;DHT22;33219;47.410;9.730;2023-05-29T06:54:40;24.20;77.70
47482;DHT22;33219;47.410;9.730;2023-05-29T06:57:08;25.60;75.90
47482;DHT22;33219;47.410;9.730;2023-05-29T06:59:36;26.00;74.60
47482;DHT22;33219;47.410;9.730;2023-05-29T07:02:03;26.10;75.70
47482;DHT22;33219;47.410;9.730;2023-05-29T07:04:31;26.10;76.30
47482;DHT22;33219;47.410;9.730;2023-05-29T07:06:59;26.80;74.10
47482;DHT22;33219;47.410;9.730;2023-05-29T07:09:27;27.60;72.30
47482;DHT22;33219;47.410;9.730;2023-05-29T07:11:54;27.00;72.10
47482;DHT22;33219;47.410;9.730;2023-05-29T07:14:23;27.20;71.60
47482;DHT22;33219;47.410;9.730;2023-05-29T07:16:51;26.20;74.00
47482;DHT22;33219;47.410;9.730;2023-05-29T07:19:18;26.40;73.60
47482;DHT22;33219;47.410;9.730;2023-05-29T07:21:46;27.30;71.80
47482;DHT22;33219;47.410;9.730;2023-05-29T07:24:13;28.60;69.40
47482;DHT22;33219;47.410;9.730;2023-05-29T07:26:41;29.20;69.00
47482;DHT22;33219;47.410;9.730;2023-05-29T07:29:09;29.50;68.00
47482;DHT22;33219;47.410;9.730;2023-05-29T07:31:38;28.20;69.20
47482;DHT22;33219;47.410;9.730;2023-05-29T07:34:07;28.30;68.40
47482;DHT22;33219;47.410;9.730;2023-05-29T07:36:34;28.50;68.00
47482;DHT22;33219;47.410;9.730;2023-05-29T07:39:02;29.00;67.20
47482;DHT22;33219;47.410;9.730;2023-05-29T07:41:32;29.80;65.40
47482;DHT22;33219;47.410;9.730;2023-05-29T07:43:59;29.50;65.90
47482;DHT22;33219;47.410;9.730;2023-05-29T07:46:27;29.50;63.60
47482;DHT22;33219;47.410;9.730;2023-05-29T07:48:55;28.50;65.30
47482;DHT22;33219;47.410;9.730;2023-05-29T07:51:22;27.90;68.10
47482;DHT22;33219;47.410;9.730;2023-05-29T07:53:51;28.10;67.60
47482;DHT22;33219;47.410;9.730;2023-05-29T07:56:18;28.40;66.20
47482;DHT22;33219;47.410;9.730;2023-05-29T07:58:46;28.70;66.80
47482;DHT22;33219;47.410;9.730;2023-05-29T08:01:13;27.70;68.10
47482;DHT22;33219;47.410;9.730;2023-05-29T08:03:44;28.10;67.60
47482;DHT22;33219;47.410;9.730;2023-05-29T08:06:11;28.00;67.50
47482;DHT22;33219;47.410;9.730;2023-05-29T08:08:39;28.50;66.70
47482;DHT22;33219;47.410;9.730;2023-05-29T08:11:07;27.40;68.90
47482;DHT22;33219;47.410;9.730;2023-05-29T08:13:35;27.40;70.00
47482;DHT22;33219;47.410;9.730;2023-05-29T08:16:03;27.70;69.60
47482;DHT22;33219;47.410;9.730;2023-05-29T08:18:32;28.80;66.00
47482;DHT22;33219;47.410;9.730;2023-05-29T08:21:00;28.60;66.50
47482;DHT22;33219;47.410;9.730;2023-05-29T08:23:27;28.50;67.60
47482;DHT22;33219;47.410;9.730;2023-05-29T08:25:55;28.30;66.80
47482;DHT22;33219;47.410;9.730;2023-05-29T08:28:22;27.70;69.40
47482;DHT22;33219;47.410;9.730;2023-05-29T08:30:52;27.40;69.30
47482;DHT22;33219;47.410;9.730;2023-05-29T08:33:20;28.50;66.90
47482;DHT22;33219;47.410;9.730;2023-05-29T08:35:47;29.20;66.10
47482;DHT22;33219;47.410;9.730;2023-05-29T08:38:15;29.30;66.20
47482;DHT22;33219;47.410;9.730;2023-05-29T08:40:42;29.90;64.40
47482;DHT22;33219;47.410;9.730;2023-05-29T08:43:20;30.00;64.80
47482;DHT22;33219;47.410;9.730;2023-05-29T08:45:51;29.20;65.00
47482;DHT22;33219;47.410;9.730;2023-05-29T08:48:18;27.70;68.00
47482;DHT22;33219;47.410;9.730;2023-05-29T08:50:48;27.40;68.90
47482;DHT22;33219;47.410;9.730;2023-05-29T08:53:16;27.60;68.30
47482;DHT22;33219;47.410;9.730;2023-05-29T08:55:47;28.40;66.50
47482;DHT22;33219;47.410;9.730;2023-05-29T08:58:17;28.30;69.10
47482;DHT22;33219;47.410;9.730;2023-05-29T09:00:46;28.10;68.00
47482;DHT22;33219;47.410;9.730;2023-05-29T09:03:14;27.90;68.80
47482;DHT22;33219;47.410;9.730;2023-05-29T09:05:42;27.90;68.00
47482;DHT22;33219;47.410;9.730;2023-05-29T09:08:12;28.20;67.50
47482;DHT22;33219;47.410;9.730;2023-05-29T09:10:41;28.70;66.80
47482;DHT22;33219;47.410;9.730;2023-05-29T09:13:10;29.20;64.30
47482;DHT22;33219;47.410;9.730;2023-05-29T09:15:38;28.60;67.10
47482;DHT22;33219;47.410;9.730;2023-05-29T09:18:08;28.00;67.30
47482;DHT22;33219;47.410;9.730;2023-05-29T09:20:36;27.50;67.30
47482;DHT22;33219;47.410;9.730;2023-05-29T09:23:06;28.60;64.40
47482;DHT22;33219;47.410;9.730;2023-05-29T09:25:39;28.70;64.50
47482;DHT22;33219;47.410;9.730;2023-05-29T09:28:08;29.10;64.40
47482;DHT22;33219;47.410;9.730;2023-05-29T09:30:46;29.30;63.00
47482;DHT22;33219;47.410;9.730;2023-05-29T09:33:11;28.40;65.70
47482;DHT22;33219;47.410;9.730;2023-05-29T09:35:43;28.70;65.40
47482;DHT22;33219;47.410;9.730;2023-05-29T09:38:13;28.90;63.90
47482;DHT22;33219;47.410;9.730;2023-05-29T09:40:42;28.90;65.50
47482;DHT22;33219;47.410;9.730;2023-05-29T09:43:12;29.00;64.30
47482;DHT22;33219;47.410;9.730;2023-05-29T09:45:41;28.60;65.60
47482;DHT22;33219;47.410;9.730;2023-05-29T09:48:17;29.00;66.00
47482;DHT22;33219;47.410;9.730;2023-05-29T09:50:46;28.60;67.10
47482;DHT22;33219;47.410;9.730;2023-05-29T09:53:20;28.50;68.00
47482;DHT22;33219;47.410;9.730;2023-05-29T09:55:55;28.90;65.50
47482;DHT22;33219;47.410;9.730;2023-05-29T09:58:20;28.50;64.50
47482;DHT22;33219;47.410;9.730;2023-05-29T10:00:48;28.40;65.80
47482;DHT22;33219;47.410;9.730;2023-05-29T10:03:16;28.40;65.00
47482;DHT22;33219;47.410;9.730;2023-05-29T10:05:46;28.20;64.20
47482;DHT22;33219;47.410;9.730;2023-05-29T10:08:17;27.80;67.20
47482;DHT22;33219;47.410;9.730;2023-05-29T10:10:47;27.20;70.20
47482;DHT22;33219;47.410;9.730;2023-05-29T10:13:16;27.00;68.30
47482;DHT22;33219;47.410;9.730;2023-05-29T10:15:46;26.90;69.80
47482;DHT22;33219;47.410;9.730;2023-05-29T10:18:23;26.80;72.20
47482;DHT22;33219;47.410;9.730;2023-05-29T10:20:50;26.90;70.10
47482;DHT22;33219;47.410;9.730;2023-05-29T10:23:23;26.90;69.50
47482;DHT22;33219;47.410;9.730;2023-05-29T10:25:53;26.90;71.10
47482;DHT22;33219;47.410;9.730;2023-05-29T10:28:24;27.20;70.60
47482;DHT22;33219;47.410;9.730;2023-05-29T10:31:08;27.10;70.90
47482;DHT22;33219;47.410;9.730;2023-05-29T10:36:18;27.20;68.80
47482;DHT22;33219;47.410;9.730;2023-05-29T10:38:48;27.10;70.70
47482;DHT22;33219;47.410;9.730;2023-05-29T10:44:01;26.90;70.00
47482;DHT22;33219;47.410;9.730;2023-05-29T10:49:19;26.60;71.50
47482;DHT22;33219;47.410;9.730;2023-05-29T10:51:47;26.70;71.90
47482;DHT22;33219;47.410;9.730;2023-05-29T10:54:15;26.70;71.10
47482;DHT22;33219;47.410;9.730;2023-05-29T10:56:58;26.80;69.00
47482;DHT22;33219;47.410;9.730;2023-05-29T10:59:27;26.50;68.10
47482;DHT22;33219;47.410;9.730;2023-05-29T11:01:56;26.40;70.40
47482;DHT22;33219;47.410;9.730;2023-05-29T11:04:26;26.30;67.80
47482;DHT22;33219;47.410;9.730;2023-05-29T11:06:54;26.40;69.40
47482;DHT22;33219;47.410;9.730;2023-05-29T11:09:40;26.30;67.20
47482;DHT22;33219;47.410;9.730;2023-05-29T11:12:25;26.20;68.40
47482;DHT22;33219;47.410;9.730;2023-05-29T11:15:05;26.30;69.90
47482;DHT22;33219;47.410;9.730;2023-05-29T11:25:29;26.80;70.20
47482;DHT22;33219;47.410;9.730;2023-05-29T11:27:59;26.90;70.50
47482;DHT22;33219;47.410;9.730;2023-05-29T11:30:27;27.30;68.40
47482;DHT22;33219;47.410;9.730;2023-05-29T11:32:56;27.30;70.60
47482;DHT22;33219;47.410;9.730;2023-05-29T11:35:26;27.40;70.70
47482;DHT22;33219;47.410;9.730;2023-05-29T11:37:56;27.40;66.20
47482;DHT22;33219;47.410;9.730;2023-05-29T11:40:24;27.40;67.80
47482;DHT22;33219;47.410;9.730;2023-05-29T11:42:52;27.40;69.40
47482;DHT22;33219;47.410;9.730;2023-05-29T11:45:21;27.50;69.60
47482;DHT22;33219;47.410;9.730;2023-05-29T11:48:02;27.60;67.60
47482;DHT22;33219;47.410;9.730;2023-05-29T11:50:30;27.50;66.00
47482;DHT22;33219;47.410;9.730;2023-05-29T11:52:59;27.60;66.90
47482;DHT22;33219;47.410;9.730;2023-05-29T11:55:28;27.70;68.80
47482;DHT22;33219;47.410;9.730;2023-05-29T11:58:00;27.90;65.10
47482;DHT22;33219;47.410;9.730;2023-05-29T12:00:38;27.90;64.60
47482;DHT22;33219;47.410;9.730;2023-05-29T12:03:07;27.90;65.00
47482;DHT22;33219;47.410;9.730;2023-05-29T12:05:46;28.00;67.00
47482;DHT22;33219;47.410;9.730;2023-05-29T12:08:16;28.00;67.80
47482;DHT22;33219;47.410;9.730;2023-05-29T12:10:48;27.90;62.00
47482;DHT22;33219;47.410;9.730;2023-05-29T12:13:20;27.90;61.20
47482;DHT22;33219;47.410;9.730;2023-05-29T12:15:49;28.00;61.80
47482;DHT22;33219;47.410;9.730;2023-05-29T12:18:18;27.60;61.80
47482;DHT22;33219;47.410;9.730;2023-05-29T12:20:46;27.40;60.80
47482;DHT22;33219;47.410;9.730;2023-05-29T12:23:14;27.40;61.20
47482;DHT22;33219;47.410;9.730;2023-05-29T12:25:44;27.10;59.70
47482;DHT22;33219;47.410;9.730;2023-05-29T12:28:16;26.90;60.00
47482;DHT22;33219;47.410;9.730;2023-05-29T12:30:48;26.60;59.70
47482;DHT22;33219;47.410;9.730;2023-05-29T12:33:28;26.60;60.50
47482;DHT22;33219;47.410;9.730;2023-05-29T12:36:04;26.50;60.80
47482;DHT22;33219;47.410;9.730;2023-05-29T12:38:41;26.50;59.40
47482;DHT22;33219;47.410;9.730;2023-05-29T12:41:02;26.30;59.80
47482;DHT22;33219;47.410;9.730;2023-05-29T12:43:30;26.40;59.70
47482;DHT22;33219;47.410;9.730;2023-05-29T12:45:58;26.40;59.50
47482;DHT22;33219;47.410;9.730;2023-05-29T12:48:27;26.40;60.00
47482;DHT22;33219;47.410;9.730;2023-05-29T12:50:54;26.30;59.30
47482;DHT22;33219;47.410;9.730;2023-05-29T12:53:22;26.40;60.50
47482;DHT22;33219;47.410;9.730;2023-05-29T12:55:51;26.40;58.50
47482;DHT22;33219;47.410;9.730;2023-05-29T12:58:20;26.50;59.80
47482;DHT22;33219;47.410;9.730;2023-05-29T13:00:52;26.40;59.90
47482;DHT22;33219;47.410;9.730;2023-05-29T13:03:20;26.40;62.10
47482;DHT22;33219;47.410;9.730;2023-05-29T13:05:50;26.50;61.70
47482;DHT22;33219;47.410;9.730;2023-05-29T13:08:19;26.50;58.00
47482;DHT22;33219;47.410;9.730;2023-05-29T13:10:47;26.40;58.50
47482;DHT22;33219;47.410;9.730;2023-05-29T13:13:15;26.40;59.40
47482;DHT22;33219;47.410;9.730;2023-05-29T13:15:42;26.30;57.80
47482;DHT22;33219;47.410;9.730;2023-05-29T13:18:10;26.00;58.40
47482;DHT22;33219;47.410;9.730;2023-05-29T13:20:37;26.00;60.00
47482;DHT22;33219;47.410;9.730;2023-05-29T13:23:05;25.90;60.20
47482;DHT22;33219;47.410;9.730;2023-05-29T13:25:33;26.00;59.60
47482;DHT22;33219;47.410;9.730;2023-05-29T13:28:01;26.20;60.30
47482;DHT22;33219;47.410;9.730;2023-05-29T13:30:28;26.30;59.40
47482;DHT22;33219;47.410;9.730;2023-05-29T13:32:56;26.20;60.10
47482;DHT22;33219;47.410;9.730;2023-05-29T13:35:24;26.40;58.90
47482;DHT22;33219;47.410;9.730;2023-05-29T13:37:51;26.30;58.30
47482;DHT22;33219;47.410;9.730;2023-05-29T13:40:19;26.20;58.70
47482;DHT22;33219;47.410;9.730;2023-05-29T13:42:46;26.20;61.30
47482;DHT22;33219;47.410;9.730;2023-05-29T13:45:14;26.20;58.50
47482;DHT22;33219;47.410;9.730;2023-05-29T13:47:41;26.20;59.20
47482;DHT22;33219;47.410;9.730;2023-05-29T13:50:09;26.30;59.10
47482;DHT22;33219;47.410;9.730;2023-05-29T13:52:37;26.30;58.90
47482;DHT22;33219;47.410;9.730;2023-05-29T13:55:05;26.40;58.70
47482;DHT22;33219;47.410;9.730;2023-05-29T13:57:35;26.50;58.30
47482;DHT22;33219;47.410;9.730;2023-05-29T14:00:05;26.40;59.80
47482;DHT22;33219;47.410;9.730;2023-05-29T14:02:34;26.40;59.00
47482;DHT22;33219;47.410;9.730;2023-05-29T14:05:02;26.50;59.80
47482;DHT22;33219;47.410;9.730;2023-05-29T14:07:29;26.50;57.60
47482;DHT22;33219;47.410;9.730;2023-05-29T14:09:57;26.20;57.50
47482;DHT22;33219;47.410;9.730;2023-05-29T14:12:24;26.10;58.50
47482;DHT22;33219;47.410;9.730;2023-05-29T14:14:52;26.00;59.80
47482;DHT22;33219;47.410;9.730;2023-05-29T14:17:20;25.80;59.00
47482;DHT22;33219;47.410;9.730;2023-05-29T14:19:48;25.70;58.80
47482;DHT22;33219;47.410;9.730;2023-05-29T14:22:15;25.60;59.00
47482;DHT22;33219;47.410;9.730;2023-05-29T14:24:43;25.60;59.80
47482;DHT22;33219;47.410;9.730;2023-05-29T14:27:11;25.60;60.10
47482;DHT22;33219;47.410;9.730;2023-05-29T14:29:38;25.50;59.00
47482;DHT22;33219;47.410;9.730;2023-05-29T14:32:06;25.60;60.20
47482;DHT22;33219;47.410;9.730;2023-05-29T14:34:34;25.60;61.30
47482;DHT22;33219;47.410;9.730;2023-05-29T14:37:01;25.60;61.50
47482;DHT22;33219;47.410;9.730;2023-05-29T14:39:29;25.60;58.60
47482;DHT22;33219;47.410;9.730;2023-05-29T14:41:56;25.40;59.30
47482;DHT22;33219;47.410;9.730;2023-05-29T14:44:24;25.50;58.70
47482;DHT22;33219;47.410;9.730;2023-05-29T14:46:51;25.30;58.80
47482;DHT22;33219;47.410;9.730;2023-05-29T14:49:19;25.20;59.90
47482;DHT22;33219;47.410;9.730;2023-05-29T14:51:47;25.30;59.60
47482;DHT22;33219;47.410;9.730;2023-05-29T14:54:15;25.30;59.80
47482;DHT22;33219;47.410;9.730;2023-05-29T14:56:42;25.20;59.30
47482;DHT22;33219;47.410;9.730;2023-05-29T14:59:10;25.10;59.50
47482;DHT22;33219;47.410;9.730;2023-05-29T15:01:37;25.10;59.30
47482;DHT22;33219;47.410;9.730;2023-05-29T15:04:05;25.10;59.80
47482;DHT22;33219;47.410;9.730;2023-05-29T15:06:33;25.20;59.50
47482;DHT22;33219;47.410;9.730;2023-05-29T15:09:00;25.30;59.40
47482;DHT22;33219;47.410;9.730;2023-05-29T15:11:29;25.30;58.90
47482;DHT22;33219;47.410;9.730;2023-05-29T15:13:57;25.20;58.70
47482;DHT22;33219;47.410;9.730;2023-05-29T15:16:25;25.20;60.10
47482;DHT22;33219;47.410;9.730;2023-05-29T15:18:53;25.30;60.10
47482;DHT22;33219;47.410;9.730;2023-05-29T15:21:20;25.20;59.50
47482;DHT22;33219;47.410;9.730;2023-05-29T15:23:48;25.10;60.00
47482;DHT22;33219;47.410;9.730;2023-05-29T15:26:15;25.20;60.50
47482;DHT22;33219;47.410;9.730;2023-05-29T15:28:43;25.10;59.20
47482;DHT22;33219;47.410;9.730;2023-05-29T15:31:11;25.20;60.40
47482;DHT22;33219;47.410;9.730;2023-05-29T15:33:38;25.10;57.90
47482;DHT22;33219;47.410;9.730;2023-05-29T15:36:07;25.10;58.80
47482;DHT22;33219;47.410;9.730;2023-05-29T15:38:35;25.10;58.70
47482;DHT22;33219;47.410;9.730;2023-05-29T15:41:02;25.20;59.40
47482;DHT22;33219;47.410;9.730;2023-05-29T15:43:30;25.10;58.70
47482;DHT22;33219;47.410;9.730;2023-05-29T15:45:59;25.10;59.60
47482;DHT22;33219;47.410;9.730;2023-05-29T15:48:26;25.10;58.30
47482;DHT22;33219;47.410;9.730;2023-05-29T15:50:54;25.10;58.70
47482;DHT22;33219;47.410;9.730;2023-05-29T15:53:21;25.00;58.40
47482;DHT22;33219;47.410;9.730;2023-05-29T15:55:49;24.90;58.70
47482;DHT22;33219;47.410;9.730;2023-05-29T15:58:16;24.90;58.50
47482;DHT22;33219;47.410;9.730;2023-05-29T16:00:44;24.90;58.50
47482;DHT22;33219;47.410;9.730;2023-05-29T16:03:12;24.90;59.40